Oregon State Flying Club

The Oregon State Flying Club is a non-profit organization committed to providing safe and inexpensive flying to the Oregon State University and Linn-Benton Community College communities. The Club currently owns three aircraft based at the Corvallis Airport for training, travel, and recreational purposes. Founded in 1952 and incorporated in 1956 the OSFC is one of the oldest continuously active flying clubs in the United States.

News & Announcements

Monthly Board Meeting

Next Meeting: Wednesday, January 14, 6pm, Location TBD

Current METAR KCVO

Raw METAR:  KCVO 230335Z AUTO 00000KT 9SM OVC080 10/09 A3034 RMK AO1

This is a report for Corvallis Municipal Automatic Weather Observing / Reporting System, United States. The report was made 7 minutes ago, at 03:35 UTC. The wind was calm. The temperature was 50 °F (10 °C), with a dew-point at 48 °F (9 °C). The atmospheric pressure was 30.34 inHg (1027 hPa). The relative humidity was 93.5%. The sky was overcast from a height of 8000 feet (2438 meter) The overall visibility was 9.0 miles (14.5 kilometers).